sensor_id;sensor_type;location;lat;lon;timestamp;pressure;altitude;pressure_sealevel;temperature;humidity
15558;BME280;7880;50.110;9.372;2023-02-20T00:02:47;6.277135386510054;;;6.312;100.0
15558;BME280;7880;50.110;9.372;2023-02-20T00:07:50;6.201504564494826;;;6.25;100.0
15558;BME280;7880;50.110;9.372;2023-02-20T00:12:56;6.166210203297669;;;6.25;100.0
15558;BME280;7880;50.110;9.372;2023-02-20T00:18:15;6.156126102717826;;;6.187;100.0
15558;BME280;7880;50.110;9.372;2023-02-20T00:23:19;6.06032720527146;;;6.125;100.0
15558;BME280;7880;50.110;9.372;2023-02-20T00:28:22;5.974612491350854;;;6.062;100.0
15558;BME280;7880;50.110;9.372;2023-02-20T00:33:27;5.9191500742221255;;;6.0;100.0
15558;BME280;7880;50.110;9.372;2023-02-20T00:38:32;5.848561594262719;;;5.937;100.0
15558;BME280;7880;50.110;9.372;2023-02-20T00:43:39;5.808225345611572;;;5.875;100.0
15558;BME280;7880;50.110;9.372;2023-02-20T00:48:41;5.73259492959478;;;5.812;100.0
15558;BME280;7880;50.110;9.372;2023-02-20T00:53:51;5.626712457183748;;;5.687;100.0
15558;BME280;7880;50.110;9.372;2023-02-20T00:58:50;5.601502363622421;;;5.687;100.0
15558;BME280;7880;50.110;9.372;2023-02-20T01:03:54;5.556124213547446;;;5.625;100.0
15558;BME280;7880;50.110;9.372;2023-02-20T01:08:56;5.5258721265941855;;;5.625;100.0
15558;BME280;7880;50.110;9.372;2023-02-20T01:14:01;5.480494015809382;;;5.562;100.0
15558;BME280;7880;50.110;9.372;2023-02-20T01:19:04;5.52083011312061;;;5.562;100.0
15558;BME280;7880;50.110;9.372;2023-02-20T01:24:22;5.52083011312061;;;5.625;100.0
15558;BME280;7880;50.110;9.372;2023-02-20T01:29:14;5.540998168761144;;;5.625;100.0
15558;BME280;7880;50.110;9.372;2023-02-20T01:34:19;5.626712457183748;;;5.687;100.0
15558;BME280;7880;50.110;9.372;2023-02-20T01:39:25;5.591418328235159;;;5.625;100.0
15558;BME280;7880;50.110;9.372;2023-02-20T01:44:29;5.591418328235159;;;5.687;100.0
15558;BME280;7880;50.110;9.372;2023-02-20T01:50:25;5.596460345783271;;;5.687;100.0
15558;BME280;7880;50.110;9.372;2023-02-20T01:55:37;5.556124213547446;;;5.625;100.0
15558;BME280;7880;50.110;9.372;2023-02-20T02:00:31;5.702342781523475;;;5.812;100.0
15558;BME280;7880;50.110;9.372;2023-02-20T02:05:52;5.727552904188633;;;5.937;100.0
15558;BME280;7880;50.110;9.372;2023-02-20T02:10:43;5.55108219832764;;;5.687;100.0
15558;BME280;7880;50.110;9.372;2023-02-20T02:15:51;5.3796538540220356;;;5.5;100.0
15558;BME280;7880;50.110;9.372;2023-02-20T02:28:04;5.253603815496899;;;5.312;100.0
15558;BME280;7880;50.110;9.372;2023-02-20T02:33:14;5.248561817739391;;;5.312;100.0
15558;BME280;7880;50.110;9.372;2023-02-20T02:38:05;5.2233518333174285;;;5.312;100.0
15558;BME280;7880;50.110;9.372;2023-02-20T02:43:11;5.18805786735029;;;5.25;100.0
15558;BME280;7880;50.110;9.372;2023-02-20T02:48:13;5.228393829619745;;;5.25;100.0
15558;BME280;7880;50.110;9.372;2023-02-20T02:53:12;5.278813808650011;;;5.312;100.0
15558;BME280;7880;50.110;9.372;2023-02-20T02:58:16;5.208225846156711;;;5.25;100.0
15558;BME280;7880;50.110;9.372;2023-02-20T03:03:22;5.228393829619745;;;5.25;100.0
15558;BME280;7880;50.110;9.372;2023-02-20T03:08:32;5.203183851018548;;;5.25;100.0
15558;BME280;7880;50.110;9.372;2023-02-20T03:20:21;5.092260031611659;;;5.187;100.0
15558;BME280;7880;50.110;9.372;2023-02-20T03:25:29;5.092260031611659;;;5.125;100.0
15558;BME280;7880;50.110;9.372;2023-02-20T03:30:45;5.087218043167377;;;5.125;100.0
15558;BME280;7880;50.110;9.372;2023-02-20T03:43:30;4.930916545749642;;;5.0;100.0
15558;BME280;7880;50.110;9.372;2023-02-20T03:48:20;4.865370839746902;;;4.937;100.0
15558;BME280;7880;50.110;9.372;2023-02-20T03:53:20;4.895622697944054;;;5.0;100.0
15558;BME280;7880;50.110;9.372;2023-02-20T03:58:28;4.865370839746902;;;4.937;100.0
15558;BME280;7880;50.110;9.372;2023-02-20T04:03:35;4.8351189920271285;;;4.937;100.0
15558;BME280;7880;50.110;9.372;2023-02-20T04:08:38;4.8099091269308705;;;4.875;100.0
15558;BME280;7880;50.110;9.372;2023-02-20T04:13:40;4.759489418566227;;;4.812;100.0
15558;BME280;7880;50.110;9.372;2023-02-20T04:18:48;4.734279575297842;;;4.812;100.0
15558;BME280;7880;50.110;9.372;2023-02-20T04:23:51;4.759489418566227;;;4.812;100.0
15558;BME280;7880;50.110;9.372;2023-02-20T04:28:52;4.764531388093019;;;4.812;100.0
15558;BME280;7880;50.110;9.372;2023-02-20T04:32:28;4.754447449330473;;;4.812;100.0
15558;BME280;7880;50.110;9.372;2023-02-20T04:37:32;4.734279575297842;;;4.812;100.0
15558;BME280;7880;50.110;9.372;2023-02-20T04:42:38;4.754447449330473;;;4.875;100.0
15558;BME280;7880;50.110;9.372;2023-02-20T04:47:46;4.774615328019718;;;4.875;100.0
15558;BME280;7880;50.110;9.372;2023-02-20T04:52:45;4.789741240092553;;;4.875;100.0
15558;BME280;7880;50.110;9.372;2023-02-20T04:57:50;4.875454791315133;;;5.0;100.0
15558;BME280;7880;50.110;9.372;2023-02-20T05:02:54;4.865370839746902;;;5.0;100.0
15558;BME280;7880;50.110;9.372;2023-02-20T05:08:01;4.930916545749642;;;5.062;100.0
15558;BME280;7880;50.110;9.372;2023-02-20T05:13:04;4.941000504884869;;;5.062;100.0
15558;BME280;7880;50.110;9.372;2023-02-20T05:18:10;4.956126445770496;;;5.062;100.0
15558;BME280;7880;50.110;9.372;2023-02-20T05:23:13;4.9813363530673085;;;5.125;100.0
15558;BME280;7880;50.110;9.372;2023-02-20T05:28:21;4.9712523892754685;;;5.062;100.0
15558;BME280;7880;50.110;9.372;2023-02-20T05:33:29;4.97629437102587;;;5.125;100.0
15558;BME280;7880;50.110;9.372;2023-02-20T05:38:29;4.986378335399786;;;5.062;100.0
15558;BME280;7880;50.110;9.372;2023-02-20T05:43:33;4.946042484889039;;;5.062;100.0
15558;BME280;7880;50.110;9.372;2023-02-20T05:48:37;4.9712523892754685;;;5.062;100.0
15558;BME280;7880;50.110;9.372;2023-02-20T05:53:41;4.930916545749642;;;5.0;100.0
15558;BME280;7880;50.110;9.372;2023-02-20T05:58:49;4.885538744047517;;;5.0;100.0
15558;BME280;7880;50.110;9.372;2023-02-20T06:03:55;4.865370839746902;;;5.0;100.0
15558;BME280;7880;50.110;9.372;2023-02-20T06:08:57;4.845202940102899;;;4.937;100.0
15558;BME280;7880;50.110;9.372;2023-02-20T06:14:05;4.855286889342824;;;4.937;100.0
15558;BME280;7880;50.110;9.372;2023-02-20T06:19:06;4.885538744047517;;;5.0;100.0
15558;BME280;7880;50.110;9.372;2023-02-20T06:24:24;4.870412815385498;;;4.937;100.0
15558;BME280;7880;50.110;9.372;2023-02-20T06:29:14;4.819993072096258;;;4.937;100.0
15558;BME280;7880;50.110;9.372;2023-02-20T06:34:17;4.845202940102899;;;4.937;100.0
15558;BME280;7880;50.110;9.372;2023-02-20T06:39:23;4.840160965919495;;;4.937;100.0
15558;BME280;7880;50.110;9.372;2023-02-20T06:44:33;4.865370839746902;;;4.937;100.0
15558;BME280;7880;50.110;9.372;2023-02-20T06:49:31;4.870412815385498;;;5.0;100.0
15558;BME280;7880;50.110;9.372;2023-02-20T06:54:36;4.935958525171737;;;5.0;100.0
15558;BME280;7880;50.110;9.372;2023-02-20T06:59:49;4.905706653004745;;;5.0;100.0
15558;BME280;7880;50.110;9.372;2023-02-20T07:04:47;4.991420318023302;;;5.062;100.0
15558;BME280;7880;50.110;9.372;2023-02-20T07:09:49;4.986378335399786;;;5.062;100.0
15558;BME280;7880;50.110;9.372;2023-02-20T07:14:54;4.920832587778568;;;5.062;100.0
15558;BME280;7880;50.110;9.372;2023-02-20T07:19:58;4.946042484889039;;;5.062;100.0
15558;BME280;7880;50.110;9.372;2023-02-20T07:31:01;5.011588251427748;;;5.125;100.0
15558;BME280;7880;50.110;9.372;2023-02-20T07:36:01;5.001504284143448;;;5.125;100.0
15558;BME280;7880;50.110;9.372;2023-02-20T07:41:09;4.991420318023302;;;5.125;100.0
15558;BME280;7880;50.110;9.372;2023-02-20T07:46:15;5.092260031611659;;;5.125;100.0
15558;BME280;7880;50.110;9.372;2023-02-20T07:51:20;5.026714204536984;;;5.125;100.0
15558;BME280;7880;50.110;9.372;2023-02-20T07:56:20;5.092260031611659;;;5.187;100.0
15558;BME280;7880;50.110;9.372;2023-02-20T08:01:29;5.117469978198642;;;5.25;100.0
15558;BME280;7880;50.110;9.372;2023-02-20T08:06:31;5.1477219237072855;;;5.25;100.0
15558;BME280;7880;50.110;9.372;2023-02-20T08:11:35;5.1275539588707035;;;5.25;100.0
15558;BME280;7880;50.110;9.372;2023-02-20T08:16:39;5.253603815496899;;;5.375;100.0
15558;BME280;7880;50.110;9.372;2023-02-20T08:21:42;5.278813808650011;;;5.375;100.0
15558;BME280;7880;50.110;9.372;2023-02-20T08:26:47;5.3796538540220356;;;5.5;100.0
15558;BME280;7880;50.110;9.372;2023-02-20T08:31:52;5.2888978079485245;;;5.375;100.0
15558;BME280;7880;50.110;9.372;2023-02-20T08:36:55;5.29898180841119;;;5.375;100.0
15558;BME280;7880;50.110;9.372;2023-02-20T08:41:58;5.293939808034338;;;5.437;100.0
15558;BME280;7880;50.110;9.372;2023-02-20T08:47:07;5.364527839794755;;;5.437;100.0
15558;BME280;7880;50.110;9.372;2023-02-20T08:52:05;5.3998218770662785;;;5.437;100.0
15558;BME280;7880;50.110;9.372;2023-02-20T08:57:23;5.490578038390959;;;5.562;100.0
15558;BME280;7880;50.110;9.372;2023-02-20T09:02:18;5.5309141403588;;;5.625;100.0
15558;BME280;7880;50.110;9.372;2023-02-20T09:07:18;5.55108219832764;;;5.687;100.0
15558;BME280;7880;50.110;9.372;2023-02-20T09:12:23;5.56116622905829;;;5.687;100.0
15558;BME280;7880;50.110;9.372;2023-02-20T09:17:30;5.692258734494681;;;5.812;100.0
15558;BME280;7880;50.110;9.372;2023-02-20T09:22:31;5.793099257169525;;;5.875;100.0
15558;BME280;7880;50.110;9.372;2023-02-20T09:27:43;5.934276184492046;;;6.0;100.0
15558;BME280;7880;50.110;9.372;2023-02-20T09:32:40;6.004864733718568;;;6.125;100.0
15558;BME280;7880;50.110;9.372;2023-02-20T09:36:51;6.0653692498861345;;;6.187;100.0
15558;BME280;7880;50.110;9.372;2023-02-20T09:42:04;6.085537431255216;;;6.187;100.0
15558;BME280;7880;50.110;9.372;2023-02-20T09:47:03;6.186378407949815;;;6.312;100.0
15558;BME280;7880;50.110;9.372;2023-02-20T09:52:04;6.383018647343851;;;6.5;100.0
15558;BME280;7880;50.110;9.372;2023-02-20T09:57:09;6.468733762024203;;;6.562;100.0
15558;BME280;7880;50.110;9.372;2023-02-20T10:02:16;6.5847014039987695;;;6.687;100.0
15558;BME280;7880;50.110;9.372;2023-02-20T10:07:18;6.56453310737852;;;6.687;100.0
15558;BME280;7880;50.110;9.372;2023-02-20T10:12:25;6.554448960814625;;;6.687;100.0
15558;BME280;7880;50.110;9.372;2023-02-20T10:17:35;6.614953857660294;;;6.75;100.0
15558;BME280;7880;50.110;9.372;2023-02-20T10:22:36;6.680500876536826;;;6.812;100.0
15558;BME280;7880;50.110;9.372;2023-02-20T10:27:41;6.872100136807421;;;6.937;100.0
15558;BME280;7880;50.110;9.372;2023-02-20T10:32:44;6.851931773830438;;;7.0;100.0
15558;BME280;7880;50.110;9.372;2023-02-20T10:37:45;6.988068314292468;;;7.062;100.0
15558;BME280;7880;50.110;9.372;2023-02-20T10:42:53;7.048573511489667;;;7.187;100.0
15558;BME280;7880;50.110;9.372;2023-02-20T10:47:56;7.1695840316126125;;;7.375;100.0
15558;BME280;7880;50.110;9.372;2023-02-20T10:53:09;7.23513146667392;;;7.375;100.0
15558;BME280;7880;50.110;9.372;2023-02-20T10:58:14;7.366226484352955;;;7.5;100.0
15558;BME280;7880;50.110;9.372;2023-02-20T11:03:20;7.436816190747777;;;7.625;100.0
15558;BME280;7880;50.110;9.372;2023-02-20T11:08:22;7.5074059541861065;;;7.687;100.0
15558;BME280;7880;50.110;9.372;2023-02-20T11:13:27;7.719175586762139;;;7.875;100.0
15558;BME280;7880;50.110;9.372;2023-02-20T11:18:35;7.845229183230549;;;8.062;100.0
15558;BME280;7880;50.110;9.372;2023-02-20T11:23:39;8.041873156937072;;;8.25;100.0
15558;BME280;7880;50.110;9.372;2023-02-20T11:28:44;8.011620209092507;;;8.25;100.0
15558;BME280;7880;50.110;9.372;2023-02-20T11:33:53;8.162885053089122;;;8.312;100.0
15558;BME280;7880;50.110;9.372;2023-02-20T11:38:58;8.288939289841801;;;8.437;100.0
15558;BME280;7880;50.110;9.372;2023-02-20T11:44:37;8.21330672596232;;;8.375;100.0
15558;BME280;7880;50.110;9.372;2023-02-20T11:49:24;8.440204614051618;;;8.625;100.0
15558;BME280;7880;50.110;9.372;2023-02-20T11:54:28;8.571301440242678;;;8.75;100.0
15558;BME280;7880;50.110;9.372;2023-02-20T11:59:35;8.757862647488945;;;9.0;100.0
15558;BME280;7880;50.110;9.372;2023-02-20T12:04:44;8.899044366466114;;;9.125;100.0
15558;BME280;7880;50.110;9.372;2023-02-20T12:09:44;8.919213202089304;;;9.187;100.0
15558;BME280;7880;50.110;9.372;2023-02-20T12:14:53;8.818369070539484;;;9.0;100.0
15558;BME280;7880;50.110;9.372;2023-02-20T12:20:04;9.020057450054447;;;9.187;100.0
15558;BME280;7880;50.110;9.372;2023-02-20T12:25:19;9.055352964345365;;;9.25;100.0
15558;BME280;7880;50.110;9.372;2023-02-20T12:30:19;9.085606273659504;;;9.312;100.0
15558;BME280;7880;50.110;9.372;2023-02-20T12:35:23;9.130986257275799;;;9.437;100.0
15558;BME280;7880;50.110;9.372;2023-02-20T12:40:38;9.282253039587522;;;9.5;100.0
15558;BME280;7880;50.110;9.372;2023-02-20T12:45:29;9.342759825853864;;;9.625;100.0
15558;BME280;7880;50.110;9.372;2023-02-20T12:50:39;9.463773524115094;;;9.75;100.0
15558;BME280;7880;50.110;9.372;2023-02-20T12:55:53;9.655378889205167;;;9.875;100.0
15558;BME280;7880;50.110;9.372;2023-02-20T13:01:02;9.504111460788408;;;9.812;100.0
15558;BME280;7880;50.110;9.372;2023-02-20T13:05:58;9.604956383962417;;;9.812;100.0
15558;BME280;7880;50.110;9.372;2023-02-20T13:11:02;9.715885933913523;;;9.937;100.0
15558;BME280;7880;50.110;9.372;2023-02-20T13:16:15;9.756223987002159;;;9.937;100.0
15558;BME280;7880;50.110;9.372;2023-02-20T13:21:20;9.882280522957444;;;10.125;100.0
15558;BME280;7880;50.110;9.372;2023-02-20T13:28:21;10.00833724081167;;;10.25;100.0
15558;BME280;7880;50.110;9.372;2023-02-20T13:33:16;9.978083611937473;;;10.25;100.0
15558;BME280;7880;50.110;9.372;2023-02-20T13:38:19;10.220112936297664;;;10.437;100.0
15558;BME280;7880;50.110;9.372;2023-02-20T13:43:31;10.250366648990894;;;10.5;100.0
15558;BME280;7880;50.110;9.372;2023-02-20T13:48:44;10.341127849934855;;;10.625;100.0
15558;BME280;7880;50.110;9.372;2023-02-20T13:53:30;10.260451222216943;;;10.562;100.0
15558;BME280;7880;50.110;9.372;2023-02-20T13:58:35;10.336085558519699;;;10.625;100.0
15558;BME280;7880;50.110;9.372;2023-02-20T14:03:39;10.3713816045376;;;10.562;100.0
15558;BME280;7880;50.110;9.372;2023-02-20T14:08:45;10.517608232819475;;;10.687;100.0
15558;BME280;7880;50.110;9.372;2023-02-20T14:13:49;10.447016036882996;;;10.687;100.0
15558;BME280;7880;50.110;9.372;2023-02-20T14:18:59;10.472227528883376;;;10.687;100.0
15558;BME280;7880;50.110;9.372;2023-02-20T14:24:12;10.401635369617726;;;10.625;100.0
15558;BME280;7880;50.110;9.372;2023-02-20T14:29:19;10.49239672772237;;;10.687;100.0
15558;BME280;7880;50.110;9.372;2023-02-20T14:34:08;10.411719960306073;;;10.687;100.0
15558;BME280;7880;50.110;9.372;2023-02-20T14:39:18;10.583158180123428;;;10.812;100.0
15558;BME280;7880;50.110;9.372;2023-02-20T14:43:00;10.517608232819475;;;10.812;100.0
15558;BME280;7880;50.110;9.372;2023-02-20T14:48:00;10.436931442120112;;;10.687;100.0
15558;BME280;7880;50.110;9.372;2023-02-20T14:53:11;10.441973739356035;;;10.687;100.0
15558;BME280;7880;50.110;9.372;2023-02-20T14:58:13;10.452058334700997;;;10.687;100.0
15558;BME280;7880;50.110;9.372;2023-02-20T15:03:21;10.396593074710108;;;10.625;100.0
15558;BME280;7880;50.110;9.372;2023-02-20T15:08:22;10.280620372161502;;;10.5;100.0
15558;BME280;7880;50.110;9.372;2023-02-20T15:13:35;10.33104326739558;;;10.5;100.0
15558;BME280;7880;50.110;9.372;2023-02-20T15:18:35;10.285662660375237;;;10.5;100.0
15558;BME280;7880;50.110;9.372;2023-02-20T15:23:37;10.210028367728228;;;10.437;100.0
15558;BME280;7880;50.110;9.372;2023-02-20T15:28:41;10.094055912853218;;;10.312;100.0
15558;BME280;7880;50.110;9.372;2023-02-20T15:33:48;10.119267302990192;;;10.312;100.0
15558;BME280;7880;50.110;9.372;2023-02-20T15:38:59;10.078929082263494;;;10.312;100.0
15558;BME280;7880;50.110;9.372;2023-02-20T15:43:55;10.003294968605042;;;10.25;100.0
15558;BME280;7880;50.110;9.372;2023-02-20T15:49:01;9.96295680142939;;;10.187;100.0
15558;BME280;7880;50.110;9.372;2023-02-20T15:54:06;9.86211146498099;;;10.062;100.0
15558;BME280;7880;50.110;9.372;2023-02-20T15:59:10;9.867153729038545;;;10.062;100.0
15558;BME280;7880;50.110;9.372;2023-02-20T16:04:14;9.756223987002159;;;9.937;100.0
15558;BME280;7880;50.110;9.372;2023-02-20T16:09:21;9.700759168807418;;;9.937;100.0
15558;BME280;7880;50.110;9.372;2023-02-20T16:14:23;9.655378889205167;;;9.812;100.0
15558;BME280;7880;50.110;9.372;2023-02-20T16:19:28;9.62008313247934;;;9.812;100.0
15558;BME280;7880;50.110;9.372;2023-02-20T16:24:32;9.509153704182244;;;9.687;100.0
15558;BME280;7880;50.110;9.372;2023-02-20T16:29:35;9.473858006537194;;;9.625;100.0
15558;BME280;7880;50.110;9.372;2023-02-20T16:34:40;9.373013234703103;;;9.562;100.0
15558;BME280;7880;50.110;9.372;2023-02-20T16:39:41;9.373013234703103;;;9.562;100.0
15558;BME280;7880;50.110;9.372;2023-02-20T16:44:47;9.302421963686356;;;9.5;100.0
15558;BME280;7880;50.110;9.372;2023-02-20T16:50:12;9.322590892441804;;;9.437;100.0
15558;BME280;7880;50.110;9.372;2023-02-20T16:54:56;9.171324040280888;;;9.375;100.0
15558;BME280;7880;50.110;9.372;2023-02-20T17:00:02;9.130986257275799;;;9.312;100.0
15558;BME280;7880;50.110;9.372;2023-02-20T17:05:04;9.085606273659504;;;9.312;100.0
15558;BME280;7880;50.110;9.372;2023-02-20T17:10:08;9.050310747144977;;;9.187;100.0
15558;BME280;7880;50.110;9.372;2023-02-20T17:15:14;8.964593099267223;;;9.125;100.0
15558;BME280;7880;50.110;9.372;2023-02-20T17:20:21;8.934339831862598;;;9.125;100.0
15558;BME280;7880;50.110;9.372;2023-02-20T17:25:22;8.989804163441296;;;9.125;100.0
15558;BME280;7880;50.110;9.372;2023-02-20T17:30:26;8.899044366466114;;;9.062;100.0
15558;BME280;7880;50.110;9.372;2023-02-20T17:35:31;9.050310747144977;;;9.187;100.0
15558;BME280;7880;50.110;9.372;2023-02-20T17:40:32;9.060395181836792;;;9.25;100.0
15558;BME280;7880;50.110;9.372;2023-02-20T17:45:44;8.95450867563486;;;9.187;100.0
15558;BME280;7880;50.110;9.372;2023-02-20T17:50:45;9.030141881253803;;;9.187;100.0
15558;BME280;7880;50.110;9.372;2023-02-20T17:55:53;9.015015234891326;;;9.187;100.0
15558;BME280;7880;50.110;9.372;2023-02-20T18:00:56;8.994846377149225;;;9.187;100.0
15558;BME280;7880;50.110;9.372;2023-02-20T18:06:02;9.030141881253803;;;9.25;100.0
15558;BME280;7880;50.110;9.372;2023-02-20T18:11:06;8.989804163441296;;;9.187;100.0
15558;BME280;7880;50.110;9.372;2023-02-20T18:16:08;8.909128783695632;;;9.062;100.0
15558;BME280;7880;50.110;9.372;2023-02-20T18:21:22;8.899044366466114;;;9.125;100.0
15558;BME280;7880;50.110;9.372;2023-02-20T18:26:17;8.868791121762479;;;9.062;100.0
15558;BME280;7880;50.110;9.372;2023-02-20T18:31:23;8.899044366466114;;;9.062;100.0
15558;BME280;7880;50.110;9.372;2023-02-20T18:36:28;8.899044366466114;;;9.062;100.0
15558;BME280;7880;50.110;9.372;2023-02-20T18:41:29;8.778031450515845;;;8.937;100.0
15558;BME280;7880;50.110;9.372;2023-02-20T18:46:35;8.788115853775526;;;8.937;100.0
15558;BME280;7880;50.110;9.372;2023-02-20T18:51:38;8.778031450515845;;;8.937;100.0
15558;BME280;7880;50.110;9.372;2023-02-20T18:56:46;8.788115853775526;;;8.937;100.0
15558;BME280;7880;50.110;9.372;2023-02-20T19:02:26;8.67214528657496;;;8.875;100.0
15558;BME280;7880;50.110;9.372;2023-02-20T19:07:07;8.616681156685809;;;8.75;100.0
15558;BME280;7880;50.110;9.372;2023-02-20T19:12:12;8.697356266347924;;;8.812;100.0
15558;BME280;7880;50.110;9.372;2023-02-20T19:17:16;8.677187481947476;;;8.812;100.0
15558;BME280;7880;50.110;9.372;2023-02-20T19:22:22;8.606596773216733;;;8.75;100.0
15558;BME280;7880;50.110;9.372;2023-02-20T19:27:26;8.586428009771044;;;8.75;100.0
15558;BME280;7880;50.110;9.372;2023-02-20T19:32:29;8.621723348856904;;;8.75;100.0
15558;BME280;7880;50.110;9.372;2023-02-20T19:37:33;8.576343629794428;;;8.75;100.0
15558;BME280;7880;50.110;9.372;2023-02-20T19:42:35;8.495668631891022;;;8.687;100.0
15558;BME280;7880;50.110;9.372;2023-02-20T19:47:09;8.556174873333656;;;8.687;100.0
15558;BME280;7880;50.110;9.372;2023-02-20T19:52:12;8.515837374381954;;;8.687;100.0
15558;BME280;7880;50.110;9.372;2023-02-20T19:57:15;8.445246796036372;;;8.625;100.0
15558;BME280;7880;50.110;9.372;2023-02-20T20:02:22;8.40490934830741;;;8.562;100.0
15558;BME280;7880;50.110;9.372;2023-02-20T20:07:27;8.36961409682408;;;8.5;100.0
15558;BME280;7880;50.110;9.372;2023-02-20T20:13:02;8.389782810211182;;;8.5;100.0
15558;BME280;7880;50.110;9.372;2023-02-20T20:17:41;8.31415015902021;;;8.437;100.0
15558;BME280;7880;50.110;9.372;2023-02-20T20:22:45;8.31415015902021;;;8.437;100.0
15558;BME280;7880;50.110;9.372;2023-02-20T20:27:48;8.288939289841801;;;8.437;100.0
15558;BME280;7880;50.110;9.372;2023-02-20T20:32:52;8.218348894850351;;;8.375;100.0
15558;BME280;7880;50.110;9.372;2023-02-20T20:37:56;8.167927219066769;;;8.312;100.0
15558;BME280;7880;50.110;9.372;2023-02-20T20:42:59;8.172969385335454;;;8.312;100.0
15558;BME280;7880;50.110;9.372;2023-02-20T20:48:04;8.22339106402942;;;8.375;100.0
15558;BME280;7880;50.110;9.372;2023-02-20T20:53:06;8.15280072200694;;;8.312;100.0
15558;BME280;7880;50.110;9.372;2023-02-20T20:58:10;8.137674227566459;;;8.25;100.0
15558;BME280;7880;50.110;9.372;2023-02-20T21:03:15;8.092294759961078;;;8.25;100.0
15558;BME280;7880;50.110;9.372;2023-02-20T21:08:19;8.016662366339006;;;8.187;100.0
15558;BME280;7880;50.110;9.372;2023-02-20T21:13:23;8.001535895472625;;;8.125;100.0
15558;BME280;7880;50.110;9.372;2023-02-20T21:18:26;7.941030038200552;;;8.062;100.0
15558;BME280;7880;50.110;9.372;2023-02-20T21:23:29;7.865397775545716;;;8.0;100.0
15558;BME280;7880;50.110;9.372;2023-02-20T21:28:33;7.820018449384952;;;7.937;100.0
15558;BME280;7880;50.110;9.372;2023-02-20T21:33:36;7.779681290365988;;;7.875;100.0
15558;BME280;7880;50.110;9.372;2023-02-20T21:38:46;7.754470575437881;;;7.875;100.0
15558;BME280;7880;50.110;9.372;2023-02-20T21:44:55;7.739344149973476;;;7.812;100.0
15558;BME280;7880;50.110;9.372;2023-02-20T21:49:36;7.643543516192585;;;7.75;100.0
15558;BME280;7880;50.110;9.372;2023-02-20T21:54:40;7.532616597809829;;;7.625;100.0
